createdAt,value
2022-08-10T00:02:50.600Z,57.0
2022-08-10T00:07:50.599Z,57.5
2022-08-10T00:12:53.900Z,57.5
2022-08-10T00:17:50.602Z,58.0
2022-08-10T00:22:57.579Z,58.0
2022-08-10T00:28:03.051Z,58.5
2022-08-10T00:32:50.613Z,58.5
2022-08-10T00:37:56.346Z,58.5
2022-08-10T00:42:50.616Z,59.0
2022-08-10T00:47:50.616Z,59.0
2022-08-10T00:52:50.621Z,59.5
2022-08-10T00:57:55.270Z,59.5
2022-08-10T01:02:50.772Z,60.0
2022-08-10T01:07:50.633Z,60.5
2022-08-10T01:12:50.838Z,60.5
2022-08-10T01:17:51.456Z,60.5
2022-08-10T01:22:50.646Z,60.5
2022-08-10T01:27:50.638Z,61.0
2022-08-10T01:32:50.639Z,61.5
2022-08-10T01:37:51.715Z,62.0
2022-08-10T01:42:50.649Z,62.0
2022-08-10T01:47:50.675Z,62.0
2022-08-10T01:52:50.656Z,62.5
2022-08-10T01:57:50.652Z,62.5
2022-08-10T02:02:50.655Z,62.5
2022-08-10T02:07:50.658Z,62.5
2022-08-10T02:12:50.667Z,63.0
2022-08-10T02:17:59.967Z,63.5
2022-08-10T02:22:51.014Z,63.5
2022-08-10T02:27:50.671Z,63.5
2022-08-10T02:32:53.106Z,63.5
2022-08-10T02:37:50.674Z,64.0
2022-08-10T02:45:27.247Z,64.0
2022-08-10T02:47:51.641Z,64.5
2022-08-10T02:52:50.677Z,64.5
2022-08-10T02:58:17.214Z,64.5
2022-08-10T03:02:50.683Z,65.0
2022-08-10T03:07:50.692Z,65.0
2022-08-10T03:12:51.041Z,65.5
2022-08-10T03:17:57.682Z,66.0
2022-08-10T03:22:50.699Z,66.0
2022-08-10T03:27:50.706Z,66.5
2022-08-10T03:32:50.715Z,66.5
2022-08-10T03:37:50.704Z,66.5
2022-08-10T03:42:50.716Z,67.0
2022-08-10T03:47:50.714Z,67.5
2022-08-10T03:52:50.713Z,68.0
2022-08-10T03:57:50.714Z,68.5
2022-08-10T04:02:50.725Z,69.0
2022-08-10T04:07:50.722Z,69.0
2022-08-10T04:12:50.969Z,69.5
2022-08-10T04:17:56.947Z,69.5
2022-08-10T04:22:50.733Z,70.0
2022-08-10T04:27:50.727Z,70.0
2022-08-10T04:32:50.731Z,70.0
2022-08-10T04:37:50.734Z,70.5
2022-08-10T04:42:50.733Z,70.5
2022-08-10T04:48:00.802Z,70.5
2022-08-10T04:52:50.741Z,70.5
2022-08-10T04:57:50.744Z,71.0
2022-08-10T05:02:50.744Z,71.5
2022-08-10T05:07:54.098Z,71.5
2022-08-10T05:12:50.760Z,71.5
2022-08-10T05:18:08.117Z,72.0
2022-08-10T05:22:50.757Z,72.0
2022-08-10T05:27:52.419Z,72.0
2022-08-10T05:32:56.389Z,72.0
2022-08-10T05:38:12.588Z,72.0
2022-08-10T05:42:50.781Z,72.5
2022-08-10T05:48:55.247Z,72.5
2022-08-10T05:52:50.780Z,72.5
2022-08-10T05:57:50.786Z,72.5
2022-08-10T06:02:50.794Z,72.0
2022-08-10T06:07:50.796Z,72.5
2022-08-10T06:12:55.566Z,72.0
2022-08-10T06:17:58.942Z,72.5
2022-08-10T06:22:50.803Z,73.0
2022-08-10T06:27:50.806Z,72.5
2022-08-10T06:32:50.819Z,72.0
2022-08-10T06:37:51.818Z,71.5
2022-08-10T06:42:50.812Z,71.0
2022-08-10T06:47:50.818Z,70.5
2022-08-10T06:52:50.825Z,69.5
2022-08-10T06:57:59.771Z,68.5
2022-08-10T07:02:50.825Z,67.5
2022-08-10T07:07:50.839Z,66.5
2022-08-10T07:12:50.844Z,65.5
2022-08-10T07:17:50.850Z,65.0
2022-08-10T07:23:55.455Z,63.5
2022-08-10T07:27:59.932Z,63.0
2022-08-10T07:32:50.862Z,61.5
2022-08-10T07:37:50.872Z,60.0
2022-08-10T07:42:50.875Z,60.0
2022-08-10T07:47:54.521Z,59.5
2022-08-10T07:52:50.882Z,58.0
2022-08-10T07:57:50.890Z,57.0
2022-08-10T08:02:50.901Z,56.0
2022-08-10T08:07:50.900Z,56.5
2022-08-10T08:12:50.908Z,55.5
2022-08-10T08:17:52.462Z,52.5
2022-08-10T08:24:10.982Z,52.5
2022-08-10T08:27:50.921Z,52.0
2022-08-10T08:33:49.638Z,50.0
2022-08-10T08:38:31.445Z,49.0
2022-08-10T08:42:50.835Z,48.5
2022-08-10T08:48:05.206Z,48.0
2022-08-10T08:52:51.148Z,48.5
2022-08-10T08:57:51.200Z,48.5
2022-08-10T09:02:54.811Z,47.5
2022-08-10T09:08:02.046Z,47.0
2022-08-10T09:12:50.855Z,46.0
2022-08-10T09:17:50.869Z,46.0
2022-08-10T09:22:51.663Z,45.0
2022-08-10T09:27:50.888Z,44.5
2022-08-10T09:36:13.677Z,43.5
2022-08-10T09:38:01.706Z,43.0
2022-08-10T09:43:14.143Z,42.5
2022-08-10T09:48:01.151Z,42.0
2022-08-10T09:52:58.849Z,40.5
2022-08-10T09:57:50.894Z,41.5
2022-08-10T10:02:50.950Z,41.5
2022-08-10T10:07:50.904Z,40.5
2022-08-10T10:12:50.912Z,39.5
2022-08-10T10:17:50.913Z,39.5
2022-08-10T10:22:50.914Z,39.5
2022-08-10T10:27:50.923Z,37.5
2022-08-10T10:32:52.467Z,38.0
2022-08-10T10:38:10.208Z,37.5
2022-08-10T10:42:50.931Z,38.0
2022-08-10T10:47:50.944Z,36.5
2022-08-10T10:52:50.934Z,36.5
2022-08-10T10:58:00.305Z,36.0
2022-08-10T11:02:50.953Z,35.0
2022-08-10T11:07:53.449Z,35.5
2022-08-10T11:12:51.142Z,35.0
2022-08-10T11:17:50.958Z,34.5
2022-08-10T11:22:50.960Z,34.5
2022-08-10T11:27:50.964Z,34.0
2022-08-10T11:32:50.967Z,35.0
2022-08-10T11:38:31.398Z,34.5
2022-08-10T11:42:50.978Z,34.5
2022-08-10T11:47:50.979Z,33.5
2022-08-10T11:52:50.985Z,34.0
2022-08-10T11:57:53.445Z,32.5
2022-08-10T12:02:51.069Z,32.0
2022-08-10T12:10:03.889Z,32.0
2022-08-10T12:12:51.004Z,32.0
2022-08-10T12:17:51.008Z,31.5
2022-08-10T12:22:51.006Z,31.0
2022-08-10T12:27:51.010Z,31.0
2022-08-10T12:32:51.015Z,30.0
2022-08-10T12:37:51.251Z,30.5
2022-08-10T12:43:02.504Z,29.0
2022-08-10T12:47:51.035Z,28.5
2022-08-10T12:52:51.028Z,28.0
2022-08-10T12:57:51.038Z,28.5
2022-08-10T13:02:51.051Z,28.5
2022-08-10T13:08:24.813Z,27.5
2022-08-10T13:12:51.487Z,27.0
2022-08-10T13:17:52.693Z,26.5
2022-08-10T13:22:51.049Z,26.0
2022-08-10T13:28:01.428Z,25.5
2022-08-10T13:32:51.062Z,25.5
2022-08-10T13:37:51.067Z,25.0
2022-08-10T13:42:51.076Z,25.5
2022-08-10T13:47:51.077Z,24.5
2022-08-10T13:52:51.076Z,24.0
2022-08-10T13:57:51.080Z,25.0
2022-08-10T14:02:51.091Z,24.0
2022-08-10T14:08:00.266Z,24.0
2022-08-10T14:12:51.093Z,23.5
2022-08-10T14:17:51.104Z,24.0
2022-08-10T14:22:51.103Z,23.5
2022-08-10T14:28:02.022Z,23.0
2022-08-10T14:32:51.109Z,23.0
2022-08-10T14:37:51.115Z,22.5
2022-08-10T14:42:51.107Z,23.0
2022-08-10T14:48:03.757Z,22.5
2022-08-10T14:52:51.117Z,21.5
2022-08-10T14:58:20.220Z,22.0
2022-08-10T15:02:58.192Z,22.0
2022-08-10T15:07:59.151Z,22.5
2022-08-10T15:12:51.150Z,22.5
2022-08-10T15:17:52.849Z,22.5
2022-08-10T15:22:51.426Z,23.5
2022-08-10T15:27:54.635Z,22.5
2022-08-10T15:32:51.143Z,23.5
2022-08-10T15:37:51.437Z,23.0
2022-08-10T15:42:51.146Z,23.0
2022-08-10T15:47:51.152Z,23.0
2022-08-10T15:53:00.505Z,22.5
2022-08-10T15:57:51.161Z,23.0
2022-08-10T16:02:51.234Z,22.5
2022-08-10T16:07:51.471Z,23.0
2022-08-10T16:12:59.771Z,23.0
2022-08-10T16:17:55.578Z,22.5
2022-08-10T16:22:51.175Z,23.0
2022-08-10T16:27:51.177Z,23.0
2022-08-10T16:32:51.193Z,22.5
2022-08-10T16:37:57.987Z,22.0
2022-08-10T16:42:51.174Z,22.5
2022-08-10T16:47:51.180Z,23.0
2022-08-10T16:52:51.183Z,23.0
2022-08-10T16:57:51.198Z,22.5
2022-08-10T17:02:51.189Z,23.5
2022-08-10T17:07:51.194Z,23.0
2022-08-10T17:12:51.201Z,23.5
2022-08-10T17:17:51.200Z,24.0
2022-08-10T17:22:54.635Z,24.0
2022-08-10T17:28:04.733Z,24.5
2022-08-10T17:32:51.208Z,24.0
2022-08-10T17:37:51.202Z,24.0
2022-08-10T17:42:51.205Z,24.0
2022-08-10T17:47:51.211Z,24.0
2022-08-10T17:52:51.217Z,24.0
2022-08-10T17:58:01.765Z,24.0
2022-08-10T18:02:51.295Z,24.5
2022-08-10T18:07:51.215Z,24.5
2022-08-10T18:12:51.224Z,25.0
2022-08-10T18:17:55.566Z,26.0
2022-08-10T18:22:51.215Z,26.5
2022-08-10T18:28:03.713Z,27.0
2022-08-10T18:32:51.229Z,27.0
2022-08-10T18:37:51.221Z,28.0
2022-08-10T18:42:51.217Z,28.0
2022-08-10T18:47:58.909Z,28.5
2022-08-10T18:52:51.222Z,29.0
2022-08-10T18:57:51.223Z,29.5
2022-08-10T19:02:51.218Z,30.0
2022-08-10T19:07:51.222Z,30.5
2022-08-10T19:12:51.234Z,31.0
2022-08-10T19:18:03.707Z,32.0
2022-08-10T19:22:51.230Z,32.5
2022-08-10T19:27:51.226Z,32.5
2022-08-10T19:32:51.315Z,33.5
2022-08-10T19:37:56.401Z,33.5
2022-08-10T19:42:51.231Z,34.0
2022-08-10T19:47:51.235Z,34.5
2022-08-10T19:52:51.234Z,35.0
2022-08-10T19:57:51.331Z,35.5
2022-08-10T20:02:51.344Z,36.0
2022-08-10T20:07:51.340Z,36.5
2022-08-10T20:12:51.341Z,37.0
2022-08-10T20:17:55.630Z,37.0
2022-08-10T20:22:51.339Z,38.0
2022-08-10T20:28:00.434Z,38.5
2022-08-10T20:32:51.348Z,39.0
2022-08-10T20:38:03.869Z,39.5
2022-08-10T20:42:51.354Z,39.5
2022-08-10T20:47:54.018Z,39.5
2022-08-10T20:52:51.353Z,40.0
2022-08-10T20:57:55.483Z,40.5
2022-08-10T21:02:51.360Z,41.0
2022-08-10T21:08:01.761Z,41.0
2022-08-10T21:12:51.374Z,41.5
2022-08-10T21:17:51.657Z,42.0
2022-08-10T21:22:51.376Z,42.0
2022-08-10T21:32:51.373Z,42.5
2022-08-10T21:37:51.474Z,43.0
2022-08-10T21:42:51.384Z,43.0
2022-08-10T21:48:07.507Z,43.0
2022-08-10T21:52:53.638Z,43.5
2022-08-10T21:57:51.380Z,43.5
2022-08-10T22:02:51.394Z,44.0
2022-08-10T22:07:51.377Z,44.5
2022-08-10T22:12:51.381Z,45.0
2022-08-10T22:18:01.045Z,45.0
2022-08-10T22:22:56.220Z,45.0
2022-08-10T22:27:51.387Z,45.0
2022-08-10T22:31:24.738Z,42.5
2022-08-10T22:32:51.418Z,45.5
2022-08-10T22:37:51.390Z,45.5
2022-08-10T22:42:59.210Z,46.0
2022-08-10T22:47:51.397Z,46.0
2022-08-10T22:53:03.036Z,46.5
2022-08-10T22:57:51.403Z,47.0
2022-08-10T23:02:51.519Z,47.0
2022-08-10T23:07:51.413Z,47.5
2022-08-10T23:12:51.413Z,47.5
2022-08-10T23:18:00.591Z,47.0
2022-08-10T23:22:51.407Z,47.5
2022-08-10T23:27:51.416Z,48.0
2022-08-10T23:32:51.421Z,48.5
2022-08-10T23:37:51.422Z,48.5
2022-08-10T23:42:51.423Z,48.5
2022-08-10T23:47:51.429Z,48.5
2022-08-10T23:52:51.431Z,48.5
2022-08-10T23:57:51.429Z,48.5
